Time;durP1;ratioP1;P1;durP2;ratioP2;P2;SDS_P1;SDS_P2;PMS_P1;PMS_P2;Temp;Humidity;BMP_temperature;BMP_pressure;BME280_temperature;BME280_humidity;BME280_pressure;Samples;Min_cycle;Max_cycle;Signal;HPM_P1;HPM_P2
2020/12/19 15:04:43;;;;;;;83.00;33.33;;;1.40;97.60;;;;;;5073423;28;20425;-96
2020/12/19 15:07:08;;;;;;;87.80;35.65;;;1.40;97.90;;;;;;5061913;28;20028;-94
2020/12/19 15:09:34;;;;;;;87.43;35.78;;;1.40;98.10;;;;;;5052832;28;20026;-96
2020/12/19 15:12:00;;;;;;;88.00;34.47;;;1.50;98.40;;;;;;5056905;28;20044;-96
2020/12/19 15:14:26;;;;;;;85.82;39.33;;;1.60;98.60;;;;;;5052077;28;20030;-96
2020/12/19 15:16:55;;;;;;;86.20;35.38;;;1.70;98.80;;;;;;5061401;28;20033;-96
2020/12/19 15:19:21;;;;;;;86.63;33.70;;;1.90;99.00;;;;;;5058931;28;20029;-96
2020/12/19 15:21:46;;;;;;;84.75;34.20;;;2.00;99.10;;;;;;5057536;28;20032;-96
2020/12/19 15:24:12;;;;;;;85.60;34.38;;;2.10;99.10;;;;;;5064174;28;20036;-96
2020/12/19 15:26:38;;;;;;;74.88;31.95;;;2.20;99.10;;;;;;5049866;28;20029;-96
2020/12/19 15:29:04;;;;;;;73.63;31.88;;;2.30;99.10;;;;;;5065781;28;20077;-96
2020/12/19 15:31:30;;;;;;;78.35;33.25;;;2.30;99.10;;;;;;5065125;28;20052;-96
2020/12/19 15:33:57;;;;;;;82.22;35.80;;;2.40;99.10;;;;;;5062371;28;20037;-96
2020/12/19 15:36:23;;;;;;;81.97;32.92;;;2.50;99.00;;;;;;5062228;28;20021;-96
2020/12/19 15:38:49;;;;;;;75.35;34.53;;;2.60;99.10;;;;;;5060495;28;20082;-96
2020/12/19 15:41:15;;;;;;;82.03;33.55;;;2.70;99.00;;;;;;5068782;28;20036;-96
2020/12/19 15:43:41;;;;;;;73.20;31.73;;;2.70;98.90;;;;;;5062548;28;20035;-96
2020/12/19 15:46:08;;;;;;;81.63;35.42;;;2.80;98.80;;;;;;5060821;28;20116;-96
2020/12/19 15:48:35;;;;;;;85.78;37.00;;;2.80;98.80;;;;;;5055387;28;20025;-95
2020/12/19 15:51:02;;;;;;;102.38;42.15;;;2.80;98.70;;;;;;5051029;28;20021;-95
2020/12/19 15:53:28;;;;;;;112.47;44.88;;;2.80;98.50;;;;;;5051164;28;20455;-95
2020/12/19 15:55:53;;;;;;;105.28;44.95;;;2.80;98.30;;;;;;5050432;28;20064;-95
2020/12/19 15:58:19;;;;;;;104.85;44.30;;;2.80;98.10;;;;;;5050977;28;20030;-94
2020/12/19 16:00:46;;;;;;;104.07;43.88;;;2.80;98.10;;;;;;5050881;28;20033;-95
2020/12/19 16:03:11;;;;;;;99.05;39.30;;;2.80;98.00;;;;;;5050842;28;20053;-94
2020/12/19 16:05:37;;;;;;;97.07;38.70;;;2.80;98.00;;;;;;5050961;28;20469;-95
2020/12/19 16:08:03;;;;;;;93.13;38.10;;;2.70;98.00;;;;;;5050819;28;20048;-94
2020/12/19 16:10:29;;;;;;;102.07;39.67;;;2.70;98.00;;;;;;5062261;28;20461;-96
2020/12/19 16:12:55;;;;;;;103.07;40.40;;;2.70;98.00;;;;;;5059955;28;20036;-96
2020/12/19 16:15:21;;;;;;;109.60;44.17;;;2.70;98.00;;;;;;5050774;28;20025;-96
2020/12/19 16:17:47;;;;;;;118.20;44.42;;;2.70;97.90;;;;;;5048074;28;20470;-96
2020/12/19 16:20:13;;;;;;;125.40;48.00;;;2.70;97.90;;;;;;5050554;28;20033;-96
2020/12/19 16:22:38;;;;;;;133.07;51.80;;;2.70;97.90;;;;;;5047970;28;20414;-96
2020/12/19 16:25:04;;;;;;;127.80;51.45;;;2.70;98.10;;;;;;5048381;28;20029;-96
2020/12/19 16:27:30;;;;;;;126.72;51.22;;;2.70;97.80;;;;;;5049292;28;20028;-96
2020/12/19 16:29:58;;;;;;;122.95;49.95;;;2.70;97.90;;;;;;5050703;28;20021;-96
2020/12/19 16:32:26;;;;;;;122.07;50.58;;;2.70;97.90;;;;;;5051752;28;20028;-96
2020/12/19 16:34:58;;;;;;;138.00;54.85;;;2.70;97.90;;;;;;5055528;28;20029;-96
2020/12/19 16:37:24;;;;;;;128.30;56.30;;;2.70;97.90;;;;;;5055945;28;20005;-96
2020/12/19 16:39:52;;;;;;;144.85;62.97;;;2.70;97.90;;;;;;5057509;28;20025;-96
2020/12/19 16:42:19;;;;;;;121.20;54.10;;;2.70;97.90;;;;;;5056974;28;20016;-96
2020/12/19 16:44:47;;;;;;;126.53;54.42;;;2.70;98.20;;;;;;5056924;28;20028;-96
2020/12/19 16:47:13;;;;;;;131.48;54.60;;;2.70;98.00;;;;;;5057205;28;20473;-96
2020/12/19 16:49:39;;;;;;;120.85;50.15;;;2.70;97.90;;;;;;5056606;28;20017;-96
2020/12/19 16:52:06;;;;;;;122.28;52.20;;;2.70;97.80;;;;;;5055730;28;20031;-96
2020/12/19 16:54:32;;;;;;;112.88;47.75;;;2.70;97.80;;;;;;5055580;28;20025;-96
2020/12/19 16:56:58;;;;;;;117.25;50.20;;;2.70;97.70;;;;;;5055209;28;20025;-96
2020/12/19 16:59:25;;;;;;;120.57;49.40;;;2.70;97.70;;;;;;5054862;28;20072;-96
2020/12/19 17:01:52;;;;;;;105.68;45.60;;;2.70;97.60;;;;;;5055141;28;20033;-96
2020/12/19 17:04:20;;;;;;;111.15;46.40;;;2.70;97.60;;;;;;5055252;28;20053;-96
2020/12/19 17:06:46;;;;;;;105.35;45.45;;;2.70;97.70;;;;;;5038338;28;20029;-96
2020/12/19 17:09:16;;;;;;;112.90;47.10;;;2.70;97.60;;;;;;5037813;28;20033;-96
2020/12/19 17:11:43;;;;;;;117.05;50.30;;;2.70;97.70;;;;;;5020165;28;20021;-96
2020/12/19 17:14:09;;;;;;;108.18;48.65;;;2.70;97.60;;;;;;5018674;28;20026;-96
2020/12/19 17:16:39;;;;;;;116.15;46.90;;;2.70;97.60;;;;;;5025382;28;20041;-96
2020/12/19 17:19:10;;;;;;;104.65;45.03;;;2.70;97.50;;;;;;5039090;28;20021;-96
2020/12/19 17:21:36;;;;;;;108.40;48.13;;;2.70;97.60;;;;;;5023982;28;20033;-96
2020/12/19 17:24:03;;;;;;;110.28;44.78;;;2.70;97.60;;;;;;5017892;28;20069;-96
2020/12/19 17:26:37;;;;;;;96.30;42.90;;;2.70;97.60;;;;;;5018571;28;20026;-96
2020/12/19 17:29:08;;;;;;;103.97;44.55;;;2.70;97.70;;;;;;5024759;28;20091;-96
2020/12/19 17:31:38;;;;;;;92.88;40.88;;;2.80;97.70;;;;;;5050723;28;20087;-96
2020/12/19 17:34:04;;;;;;;97.53;40.97;;;2.80;97.80;;;;;;4988226;28;20058;-96
2020/12/19 17:36:34;;;;;;;107.18;42.58;;;2.80;97.70;;;;;;4999140;28;20030;-96
2020/12/19 17:39:03;;;;;;;120.05;44.08;;;2.80;97.70;;;;;;5017464;28;20016;-96
2020/12/19 17:41:36;;;;;;;99.40;39.35;;;2.80;97.60;;;;;;5034908;28;20021;-96
2020/12/19 17:44:04;;;;;;;89.88;36.20;;;2.80;97.60;;;;;;5037791;28;20044;-96
2020/12/19 17:46:30;;;;;;;88.85;35.63;;;2.80;97.60;;;;;;5040262;28;20009;-96
2020/12/19 17:49:02;;;;;;;92.47;38.05;;;2.80;97.60;;;;;;5056046;28;20018;-96
2020/12/19 17:51:33;;;;;;;90.68;35.47;;;2.80;97.70;;;;;;5036737;28;20025;-96
2020/12/19 17:54:26;;;;;;;98.65;38.00;;;2.90;97.70;;;;;;5021605;28;20026;-96
2020/12/19 17:57:30;;;;;;;97.78;38.58;;;2.90;97.60;;;;;;5021452;28;20026;-96
2020/12/19 17:59:59;;;;;;;88.00;33.80;;;2.90;97.60;;;;;;5021388;28;20089;-96
2020/12/19 18:02:28;;;;;;;87.72;37.40;;;2.90;97.50;;;;;;5040553;28;20485;-96
2020/12/19 18:04:54;;;;;;;89.93;35.78;;;2.90;97.50;;;;;;5037766;28;20033;-96
2020/12/19 18:07:34;;;;;;;98.95;39.30;;;2.90;97.50;;;;;;5056973;28;20029;-96
2020/12/19 18:10:07;;;;;;;94.07;38.42;;;2.90;97.50;;;;;;4985364;28;20019;-96
2020/12/19 18:13:19;;;;;;;104.75;40.50;;;2.90;97.50;;;;;;5018545;28;20040;-96
2020/12/19 18:19:07;;;;;;;92.47;38.10;;;2.90;97.60;;;;;;5803630;23;20068;-96
2020/12/19 18:21:44;;;;;;;99.38;41.05;;;2.90;97.70;;;;;;5021425;28;20086;-96
2020/12/19 18:43:00;;;;;;;106.00;42.00;;;2.80;97.20;;;;;;5287894;23;19906;-96
2020/12/19 19:00:50;;;;;;;113.78;44.80;;;2.70;96.90;;;;;;4986787;28;20078;-95
2020/12/19 19:03:16;;;;;;;126.63;46.78;;;2.70;96.80;;;;;;4969834;28;20050;-95
2020/12/19 19:05:42;;;;;;;110.68;45.97;;;2.70;96.80;;;;;;4971067;28;20030;-96
2020/12/19 19:08:08;;;;;;;117.95;45.55;;;2.70;96.80;;;;;;4970332;28;20031;-96
2020/12/19 19:10:35;;;;;;;117.75;44.55;;;2.70;96.90;;;;;;4970037;28;20041;-95
2020/12/19 19:13:01;;;;;;;118.68;45.33;;;2.60;96.80;;;;;;4969056;28;20027;-96
2020/12/19 19:15:27;;;;;;;117.85;44.75;;;2.60;96.70;;;;;;4970548;28;20471;-96
2020/12/19 19:17:54;;;;;;;123.07;44.55;;;2.60;96.80;;;;;;4950340;29;20032;-96
2020/12/19 19:20:20;;;;;;;123.45;43.63;;;2.60;97.10;;;;;;4955394;28;20038;-96
2020/12/19 19:22:49;;;;;;;112.88;40.08;;;2.60;96.90;;;;;;4970139;28;20031;-96
2020/12/19 19:25:16;;;;;;;111.90;40.53;;;2.60;96.90;;;;;;4971876;28;20027;-95
2020/12/19 19:27:42;;;;;;;130.90;46.15;;;2.60;97.10;;;;;;4969874;28;20027;-96
2020/12/19 19:30:08;;;;;;;121.43;43.58;;;2.60;97.00;;;;;;4969506;28;20430;-95
2020/12/19 19:32:37;;;;;;;111.18;41.63;;;2.60;97.10;;;;;;4969348;28;20023;-96
2020/12/19 19:35:03;;;;;;;101.03;38.60;;;2.70;97.20;;;;;;4954344;28;20031;-95
2020/12/19 19:40:58;;;;;;;111.78;37.47;;;2.70;97.10;;;;;;5565851;23;20122;-96
2020/12/19 19:43:24;;;;;;;97.10;35.88;;;2.70;97.20;;;;;;5717833;23;20058;-96
2020/12/19 19:48:25;;;;;;;88.95;32.08;;;2.80;97.20;;;;;;5427710;23;19930;-93
2020/12/19 19:53:29;;;;;;;104.50;34.15;;;2.80;97.20;;;;;;5427611;23;20079;-96
2020/12/19 21:01:33;;;;;;;;;;;3.00;96.80;;;;;;5452084;22;16277278;-96
2020/12/19 21:04:07;;;;;;;91.53;31.20;;;3.00;96.60;;;;;;6087237;23;19936;-95
2020/12/19 21:17:07;;;;;;;91.80;29.60;;;3.00;97.10;;;;;;5965346;24;20518;-95
2020/12/19 21:19:33;;;;;;;93.20;31.10;;;3.00;97.10;;;;;;5943999;24;20004;-94
2020/12/19 21:22:18;;;;;;;95.50;31.55;;;3.00;97.10;;;;;;6058834;23;20446;-95
2020/12/19 21:25:39;;;;;;;99.43;31.95;;;3.00;97.10;;;;;;6079403;23;20036;-95
2020/12/19 21:28:10;;;;;;;102.18;32.75;;;3.00;97.20;;;;;;6062387;23;20006;-95
2020/12/19 21:30:43;;;;;;;107.93;34.72;;;3.00;97.30;;;;;;6081999;23;20002;-95
2020/12/19 21:33:11;;;;;;;112.20;36.00;;;3.00;97.30;;;;;;6128602;23;20061;-94
2020/12/19 21:35:40;;;;;;;114.93;35.55;;;3.10;97.20;;;;;;6141298;23;20012;-96
2020/12/19 21:38:24;;;;;;;110.35;34.67;;;3.10;97.20;;;;;;6141056;23;20032;-95
2020/12/19 21:40:57;;;;;;;103.70;32.67;;;3.10;97.10;;;;;;6140804;23;20048;-95
2020/12/19 21:43:26;;;;;;;122.25;38.10;;;3.10;97.10;;;;;;6143050;23;20012;-96
2020/12/19 21:46:11;;;;;;;114.75;33.08;;;3.10;97.00;;;;;;6141379;23;20009;-96
2020/12/19 21:48:51;;;;;;;106.20;33.15;;;3.10;97.10;;;;;;6134077;23;20439;-94
2020/12/19 21:51:17;;;;;;;109.28;33.25;;;3.10;97.20;;;;;;6133486;23;20025;-95
2020/12/19 21:53:45;;;;;;;122.38;38.35;;;3.10;97.20;;;;;;6133043;23;19997;-96
2020/12/19 21:56:14;;;;;;;107.25;34.10;;;3.10;97.10;;;;;;6136512;23;20021;-96
2020/12/19 22:01:49;;;;;;;106.68;33.30;;;3.10;97.10;;;;;;6198594;23;20028;-96
